Time,TemperatureF,DewpointF,PressureIn,WindDirection,WindDirectionDegrees,WindSpeedMPH,WindSpeedGustMPH,Humidity,HourlyPrecipIn,Conditions,Clouds,dailyrainin,SoftwareType,DateUTC
2013-10-03 00:02:00,39.4,37.2,30.07,NW,315,1.0,2.0,92,0.01,,,0.02,meteohub,2013-10-03 07:02:00,
2013-10-03 00:07:00,39.4,37.2,30.07,West,270,1.0,2.0,92,0.01,,,0.00,meteohub,2013-10-03 07:07:00,
2013-10-03 00:12:00,39.4,37.2,30.08,West,270,1.0,2.0,92,0.00,,,0.00,meteohub,2013-10-03 07:12:00,
2013-10-03 00:17:00,39.4,37.2,30.08,NW,315,2.0,2.0,92,0.00,,,0.00,meteohub,2013-10-03 07:17:00,
2013-10-03 00:22:00,39.4,37.6,30.08,South,180,1.0,2.0,93,0.00,,,0.00,meteohub,2013-10-03 07:22:00,
2013-10-03 00:27:00,39.4,37.6,30.09,West,270,1.0,2.0,93,0.00,,,0.00,meteohub,2013-10-03 07:27:00,
2013-10-03 00:32:00,39.6,37.9,30.08,NE,45,1.0,2.0,94,0.00,,,0.00,meteohub,2013-10-03 07:32:00,
2013-10-03 00:37:00,39.6,37.9,30.09,West,270,2.0,2.0,94,0.01,,,0.01,meteohub,2013-10-03 07:37:00,
2013-10-03 00:42:00,39.4,37.8,30.08,NW,315,1.0,2.0,94,0.01,,,0.01,meteohub,2013-10-03 07:42:00,
2013-10-03 00:47:00,39.2,37.6,30.09,NE,45,2.0,2.0,94,0.01,,,0.01,meteohub,2013-10-03 07:47:00,
2013-10-03 00:52:00,39.2,37.6,30.08,NW,315,0.0,3.0,94,0.01,,,0.01,meteohub,2013-10-03 07:52:00,
2013-10-03 00:57:00,39.0,37.8,30.08,NW,315,0.0,3.0,95,0.01,,,0.01,meteohub,2013-10-03 07:57:00,
2013-10-03 01:02:00,38.8,37.6,30.09,NW,315,1.0,2.0,95,0.01,,,0.01,meteohub,2013-10-03 08:02:00,
2013-10-03 01:07:00,38.8,37.6,30.08,NW,315,0.0,2.0,95,0.01,,,0.01,meteohub,2013-10-03 08:07:00,
2013-10-03 01:12:00,38.7,37.4,30.09,NW,315,0.0,2.0,95,0.01,,,0.01,meteohub,2013-10-03 08:12:00,
2013-10-03 01:17:00,38.3,37.0,30.09,NW,315,0.0,1.0,95,0.01,,,0.01,meteohub,2013-10-03 08:17:00,
2013-10-03 01:22:00,38.1,36.9,30.09,NW,315,1.0,0.0,95,0.01,,,0.01,meteohub,2013-10-03 08:22:00,
2013-10-03 01:27:00,37.9,36.7,30.09,South,180,1.0,1.0,95,0.01,,,0.01,meteohub,2013-10-03 08:27:00,
2013-10-03 01:32:00,37.6,36.3,30.09,SW,225,1.0,1.0,95,0.01,,,0.01,meteohub,2013-10-03 08:32:00,
2013-10-03 01:37:00,37.4,36.1,30.09,SE,135,1.0,1.0,95,0.00,,,0.01,meteohub,2013-10-03 08:37:00,
2013-10-03 01:42:00,37.2,34.9,30.09,South,180,2.0,2.0,91,0.00,,,0.01,meteohub,2013-10-03 08:42:00,
2013-10-03 01:47:00,37.2,34.9,30.09,SW,225,4.0,4.0,91,0.00,,,0.01,meteohub,2013-10-03 08:47:00,
2013-10-03 01:52:00,37.4,36.1,30.10,SW,225,2.0,4.0,95,0.00,,,0.01,meteohub,2013-10-03 08:52:00,
2013-10-03 01:57:00,37.4,36.1,30.09,South,180,2.0,4.0,95,0.00,,,0.01,meteohub,2013-10-03 08:57:00,
2013-10-03 02:02:00,37.4,36.1,30.10,NW,315,5.0,5.0,95,0.00,,,0.01,meteohub,2013-10-03 09:02:00,
2013-10-03 02:07:00,37.4,35.8,30.10,SW,225,1.0,5.0,94,0.00,,,0.01,meteohub,2013-10-03 09:07:00,
2013-10-03 02:12:00,37.4,35.8,30.10,South,180,2.0,5.0,94,0.00,,,0.01,meteohub,2013-10-03 09:12:00,
2013-10-03 02:17:00,37.4,35.6,30.10,East,90,1.0,5.0,93,0.00,,,0.01,meteohub,2013-10-03 09:17:00,
2013-10-03 02:22:00,37.2,34.0,30.10,South,180,2.0,4.0,88,0.00,,,0.01,meteohub,2013-10-03 09:22:00,
2013-10-03 02:27:00,37.2,33.8,30.10,NW,315,2.0,3.0,87,0.00,,,0.01,meteohub,2013-10-03 09:27:00,
2013-10-03 02:32:00,37.2,33.4,30.11,West,270,1.0,3.0,86,0.00,,,0.01,meteohub,2013-10-03 09:32:00,
2013-10-03 02:37:00,37.0,32.9,30.11,SW,225,2.0,3.0,85,0.00,,,0.01,meteohub,2013-10-03 09:37:00,
2013-10-03 02:42:00,36.9,32.5,30.11,NW,315,0.0,2.0,84,0.00,,,0.01,meteohub,2013-10-03 09:42:00,
2013-10-03 02:47:00,36.7,32.4,30.11,NW,315,0.0,2.0,84,0.00,,,0.01,meteohub,2013-10-03 09:47:00,
2013-10-03 02:52:00,36.5,32.2,30.12,NW,315,0.0,2.0,84,0.00,,,0.01,meteohub,2013-10-03 09:52:00,
2013-10-03 02:57:00,36.1,31.5,30.11,NW,315,0.0,0.0,83,0.00,,,0.01,meteohub,2013-10-03 09:57:00,
2013-10-03 03:02:00,36.0,31.3,30.11,NW,315,1.0,0.0,83,0.00,,,0.01,meteohub,2013-10-03 10:02:00,
2013-10-03 03:07:00,35.8,31.5,30.12,NW,315,1.0,1.0,84,0.00,,,0.01,meteohub,2013-10-03 10:07:00,
2013-10-03 03:12:00,35.6,31.3,30.11,SW,225,0.0,1.0,84,0.00,,,0.01,meteohub,2013-10-03 10:12:00,
2013-10-03 03:17:00,35.2,31.1,30.12,SW,225,1.0,1.0,85,0.00,,,0.01,meteohub,2013-10-03 10:17:00,
2013-10-03 03:22:00,34.9,30.9,30.11,SW,225,1.0,1.0,85,0.00,,,0.01,meteohub,2013-10-03 10:22:00,
2013-10-03 03:27:00,34.7,30.9,30.12,SW,225,1.0,1.0,86,0.00,,,0.01,meteohub,2013-10-03 10:27:00,
2013-10-03 03:32:00,34.3,30.6,30.11,SW,225,1.0,2.0,86,0.00,,,0.01,meteohub,2013-10-03 10:32:00,
2013-10-03 03:37:00,34.0,30.6,30.11,SW,225,0.0,2.0,87,0.00,,,0.01,meteohub,2013-10-03 10:37:00,
2013-10-03 03:42:00,33.8,30.4,30.12,SW,225,2.0,2.0,87,0.00,,,0.01,meteohub,2013-10-03 10:42:00,
2013-10-03 03:47:00,33.4,30.6,30.12,SW,225,1.0,2.0,89,0.00,,,0.01,meteohub,2013-10-03 10:47:00,
2013-10-03 03:52:00,33.3,30.4,30.12,SW,225,1.0,2.0,89,0.00,,,0.01,meteohub,2013-10-03 10:52:00,
2013-10-03 03:57:00,33.1,30.4,30.12,SW,225,0.0,2.0,90,0.00,,,0.01,meteohub,2013-10-03 10:57:00,
2013-10-03 04:02:00,32.9,30.4,30.12,SW,225,0.0,2.0,90,0.00,,,0.01,meteohub,2013-10-03 11:02:00,
2013-10-03 04:07:00,32.5,30.0,30.12,SW,225,0.0,2.0,90,0.00,,,0.01,meteohub,2013-10-03 11:07:00,
2013-10-03 04:12:00,32.5,30.0,30.13,SW,225,0.0,0.0,90,0.00,,,0.01,meteohub,2013-10-03 11:12:00,
2013-10-03 04:17:00,32.4,29.8,30.12,West,270,0.0,1.0,90,0.00,,,0.01,meteohub,2013-10-03 11:17:00,
2013-10-03 04:22:00,32.4,30.0,30.13,West,270,0.0,1.0,91,0.00,,,0.01,meteohub,2013-10-03 11:22:00,
2013-10-03 04:27:00,32.5,30.2,30.13,West,270,0.0,1.0,91,0.00,,,0.01,meteohub,2013-10-03 11:27:00,
2013-10-03 04:32:00,32.7,30.4,30.14,West,270,0.0,1.0,91,0.00,,,0.01,meteohub,2013-10-03 11:32:00,
2013-10-03 04:37:00,32.9,30.6,30.13,West,270,0.0,1.0,91,0.00,,,0.01,meteohub,2013-10-03 11:37:00,
2013-10-03 04:42:00,32.9,30.9,30.13,SE,135,0.0,1.0,92,0.00,,,0.01,meteohub,2013-10-03 11:42:00,
2013-10-03 04:47:00,32.9,30.9,30.14,SE,135,0.0,1.0,92,0.00,,,0.01,meteohub,2013-10-03 11:47:00,
2013-10-03 04:52:00,32.9,30.9,30.14,SE,135,1.0,1.0,92,0.00,,,0.01,meteohub,2013-10-03 11:52:00,
2013-10-03 04:57:00,33.1,31.1,30.14,SW,225,1.0,1.0,92,0.00,,,0.01,meteohub,2013-10-03 11:57:00,
2013-10-03 05:02:00,32.9,30.9,30.13,SW,225,2.0,2.0,92,0.01,,,0.02,meteohub,2013-10-03 12:02:00,
2013-10-03 05:07:00,32.9,30.9,30.14,SW,225,0.0,2.0,92,0.01,,,0.02,meteohub,2013-10-03 12:07:00,
2013-10-03 05:12:00,32.9,30.9,30.14,SW,225,0.0,2.0,92,0.01,,,0.02,meteohub,2013-10-03 12:12:00,
2013-10-03 05:17:00,32.9,31.1,30.14,SW,225,0.0,2.0,93,0.01,,,0.02,meteohub,2013-10-03 12:17:00,
2013-10-03 05:22:00,32.7,30.9,30.14,SW,225,0.0,0.0,93,0.01,,,0.02,meteohub,2013-10-03 12:22:00,
2013-10-03 05:27:00,32.7,30.9,30.14,SW,225,0.0,0.0,93,0.01,,,0.02,meteohub,2013-10-03 12:27:00,
2013-10-03 05:32:00,32.5,30.7,30.14,SW,225,0.0,0.0,93,0.01,,,0.02,meteohub,2013-10-03 12:32:00,
2013-10-03 05:37:00,32.7,30.9,30.14,SW,225,1.0,0.0,93,0.01,,,0.02,meteohub,2013-10-03 12:37:00,
2013-10-03 05:42:00,33.1,31.3,30.14,SW,225,1.0,1.0,93,0.01,,,0.02,meteohub,2013-10-03 12:42:00,
2013-10-03 05:47:00,33.3,31.6,30.15,SW,225,2.0,2.0,94,0.01,,,0.02,meteohub,2013-10-03 12:47:00,
2013-10-03 05:52:00,32.9,31.3,30.15,SW,225,1.0,2.0,94,0.01,,,0.02,meteohub,2013-10-03 12:52:00,
2013-10-03 05:57:00,32.7,31.1,30.15,SW,225,2.0,2.0,94,0.00,,,0.02,meteohub,2013-10-03 12:57:00,
2013-10-03 06:02:00,32.7,31.1,30.15,SW,225,1.0,2.0,94,0.00,,,0.02,meteohub,2013-10-03 13:02:00,
2013-10-03 06:07:00,32.4,30.7,30.16,SW,225,0.0,2.0,94,0.00,,,0.02,meteohub,2013-10-03 13:07:00,
2013-10-03 06:12:00,32.0,30.6,30.16,SW,225,0.0,2.0,94,0.00,,,0.02,meteohub,2013-10-03 13:12:00,
2013-10-03 06:17:00,31.8,30.6,30.16,SW,225,0.0,2.0,95,0.00,,,0.02,meteohub,2013-10-03 13:17:00,
2013-10-03 06:22:00,31.5,30.2,30.16,SW,225,0.0,1.0,95,0.00,,,0.02,meteohub,2013-10-03 13:22:00,
2013-10-03 06:27:00,31.5,30.2,30.17,SW,225,0.0,0.0,95,0.00,,,0.02,meteohub,2013-10-03 13:27:00,
2013-10-03 06:32:00,31.3,30.0,30.17,SW,225,0.0,1.0,95,0.00,,,0.02,meteohub,2013-10-03 13:32:00,
2013-10-03 06:37:00,31.1,29.8,30.17,SW,225,0.0,1.0,95,0.00,,,0.02,meteohub,2013-10-03 13:37:00,
2013-10-03 06:42:00,31.1,29.8,30.17,SW,225,0.0,1.0,95,0.00,,,0.02,meteohub,2013-10-03 13:42:00,
2013-10-03 06:47:00,31.1,30.0,30.18,SW,225,1.0,1.0,96,0.00,,,0.02,meteohub,2013-10-03 13:47:00,
2013-10-03 06:52:00,31.1,30.0,30.18,SW,225,1.0,1.0,96,0.00,,,0.02,meteohub,2013-10-03 13:52:00,
2013-10-03 06:57:00,31.1,30.0,30.19,SW,225,1.0,1.0,96,0.00,,,0.02,meteohub,2013-10-03 13:57:00,
2013-10-03 07:02:00,31.3,30.2,30.18,SW,225,2.0,2.0,96,0.00,,,0.02,meteohub,2013-10-03 14:02:00,
2013-10-03 07:07:00,31.1,30.0,30.18,SW,225,0.0,2.0,96,0.00,,,0.02,meteohub,2013-10-03 14:07:00,
2013-10-03 07:12:00,31.1,30.0,30.18,SW,225,0.0,2.0,96,0.00,,,0.02,meteohub,2013-10-03 14:12:00,
2013-10-03 07:17:00,31.1,30.4,30.18,SW,225,0.0,2.0,97,0.00,,,0.02,meteohub,2013-10-03 14:17:00,
2013-10-03 07:22:00,31.1,30.4,30.18,SE,135,1.0,1.0,97,0.00,,,0.02,meteohub,2013-10-03 14:22:00,
2013-10-03 07:27:00,31.3,30.6,30.19,SW,225,1.0,1.0,97,0.00,,,0.02,meteohub,2013-10-03 14:27:00,
2013-10-03 07:32:00,31.5,30.7,30.19,SW,225,0.0,1.0,97,0.00,,,0.02,meteohub,2013-10-03 14:32:00,
2013-10-03 07:37:00,31.6,30.9,30.19,SW,225,1.0,1.0,97,0.00,,,0.02,meteohub,2013-10-03 14:37:00,
2013-10-03 07:42:00,32.0,31.3,30.19,SW,225,1.0,1.0,97,0.00,,,0.02,meteohub,2013-10-03 14:42:00,
2013-10-03 07:47:00,32.2,31.5,30.20,West,270,0.0,2.0,97,0.00,,,0.02,meteohub,2013-10-03 14:47:00,
2013-10-03 07:52:00,32.4,31.6,30.20,West,270,0.0,2.0,97,0.00,,,0.02,meteohub,2013-10-03 14:52:00,
2013-10-03 07:57:00,32.5,32.0,30.20,West,270,0.0,2.0,98,0.00,,,0.02,meteohub,2013-10-03 14:57:00,
2013-10-03 08:02:00,32.7,32.2,30.20,NE,45,1.0,1.0,98,0.00,,,0.02,meteohub,2013-10-03 15:02:00,
2013-10-03 08:07:00,33.1,32.5,30.21,NE,45,0.0,1.0,98,0.00,,,0.02,meteohub,2013-10-03 15:07:00,
2013-10-03 08:12:00,33.3,32.7,30.21,NE,45,0.0,1.0,98,0.00,,,0.02,meteohub,2013-10-03 15:12:00,
2013-10-03 08:17:00,33.4,33.3,30.21,NE,45,0.0,1.0,99,0.00,,,0.02,meteohub,2013-10-03 15:17:00,
2013-10-03 08:22:00,33.6,33.4,30.21,NE,45,0.0,1.0,99,0.00,,,0.02,meteohub,2013-10-03 15:22:00,
2013-10-03 08:27:00,34.0,33.4,30.22,NE,45,0.0,1.0,98,0.00,,,0.02,meteohub,2013-10-03 15:27:00,
2013-10-03 08:32:00,34.2,33.6,30.22,NE,45,0.0,0.0,98,0.00,,,0.02,meteohub,2013-10-03 15:32:00,
2013-10-03 08:37:00,34.5,34.0,30.22,NE,45,0.0,0.0,98,0.00,,,0.02,meteohub,2013-10-03 15:37:00,
2013-10-03 08:42:00,34.9,34.3,30.22,NE,45,0.0,0.0,98,0.00,,,0.02,meteohub,2013-10-03 15:42:00,
2013-10-03 08:47:00,35.2,34.7,30.22,East,90,2.0,0.0,98,0.00,,,0.02,meteohub,2013-10-03 15:47:00,
2013-10-03 08:52:00,35.6,34.9,30.22,East,90,1.0,2.0,97,0.00,,,0.02,meteohub,2013-10-03 15:52:00,
2013-10-03 08:57:00,36.1,35.4,30.22,SE,135,2.0,2.0,97,0.00,,,0.02,meteohub,2013-10-03 15:57:00,
2013-10-03 09:02:00,36.3,35.6,30.23,East,90,2.0,2.0,97,0.00,,,0.02,meteohub,2013-10-03 16:02:00,
2013-10-03 09:07:00,36.7,36.0,30.23,East,90,3.0,3.0,97,0.00,,,0.02,meteohub,2013-10-03 16:07:00,
2013-10-03 09:12:00,36.7,36.0,30.23,East,90,2.0,3.0,97,0.00,,,0.02,meteohub,2013-10-03 16:12:00,
2013-10-03 09:17:00,37.0,36.3,30.23,SE,135,2.0,4.0,97,0.00,,,0.02,meteohub,2013-10-03 16:17:00,
2013-10-03 09:22:00,37.6,37.4,30.23,South,180,1.0,4.0,99,0.00,,,0.02,meteohub,2013-10-03 16:22:00,
2013-10-03 09:27:00,38.1,37.9,30.23,South,180,1.0,2.0,99,0.00,,,0.02,meteohub,2013-10-03 16:27:00,
2013-10-03 09:32:00,38.5,38.3,30.23,SW,225,1.0,2.0,99,0.00,,,0.02,meteohub,2013-10-03 16:32:00,
2013-10-03 09:37:00,39.0,38.8,30.24,SW,225,2.0,2.0,99,0.00,,,0.02,meteohub,2013-10-03 16:37:00,
2013-10-03 09:42:00,39.4,39.2,30.24,NW,315,1.0,2.0,99,0.00,,,0.02,meteohub,2013-10-03 16:42:00,
2013-10-03 09:47:00,39.7,39.6,30.24,NW,315,1.0,2.0,99,0.00,,,0.02,meteohub,2013-10-03 16:47:00,
2013-10-03 09:52:00,39.9,39.7,30.25,SE,135,2.0,2.0,99,0.00,,,0.02,meteohub,2013-10-03 16:52:00,
2013-10-03 09:57:00,40.1,39.9,30.25,East,90,2.0,3.0,99,0.00,,,0.02,meteohub,2013-10-03 16:57:00,
2013-10-03 10:02:00,41.4,41.2,30.24,NE,45,2.0,3.0,99,0.00,,,0.02,meteohub,2013-10-03 17:02:00,
2013-10-03 10:07:00,41.9,41.7,30.24,SE,135,3.0,3.0,99,0.00,,,0.02,meteohub,2013-10-03 17:07:00,
2013-10-03 10:12:00,42.3,42.1,30.25,East,90,2.0,4.0,99,0.00,,,0.02,meteohub,2013-10-03 17:12:00,
2013-10-03 10:17:00,42.8,42.3,30.25,SE,135,3.0,4.0,98,0.00,,,0.02,meteohub,2013-10-03 17:17:00,
2013-10-03 10:22:00,43.5,42.8,30.25,SE,135,2.0,4.0,97,0.00,,,0.02,meteohub,2013-10-03 17:22:00,
2013-10-03 10:27:00,44.2,42.3,30.25,NE,45,3.0,4.0,93,0.00,,,0.02,meteohub,2013-10-03 17:27:00,
2013-10-03 10:32:00,45.1,42.1,30.25,SE,135,2.0,3.0,89,0.00,,,0.02,meteohub,2013-10-03 17:32:00,
2013-10-03 10:37:00,45.3,40.1,30.25,NNE,23,2.0,4.0,82,0.00,,,0.02,meteohub,2013-10-03 17:37:00,
2013-10-03 10:42:00,45.0,38.5,30.25,SW,225,4.0,4.0,78,0.00,,,0.02,meteohub,2013-10-03 17:42:00,
2013-10-03 10:47:00,44.8,36.7,30.25,West,270,6.0,6.0,73,0.00,,,0.02,meteohub,2013-10-03 17:47:00,
2013-10-03 10:52:00,44.4,36.3,30.25,North,0,6.0,8.0,73,0.00,,,0.02,meteohub,2013-10-03 17:52:00,
2013-10-03 10:57:00,44.2,35.8,30.25,NE,45,5.0,8.0,72,0.00,,,0.02,meteohub,2013-10-03 17:57:00,
2013-10-03 11:02:00,44.2,35.8,30.25,NW,315,3.0,8.0,72,0.00,,,0.02,meteohub,2013-10-03 18:02:00,
2013-10-03 11:07:00,44.4,36.3,30.26,NE,45,2.0,6.0,73,0.00,,,0.02,meteohub,2013-10-03 18:07:00,
2013-10-03 11:12:00,45.7,37.6,30.26,North,0,5.0,6.0,73,0.00,,,0.02,meteohub,2013-10-03 18:12:00,
2013-10-03 11:17:00,47.1,38.5,30.26,NE,45,2.0,8.0,72,0.00,,,0.02,meteohub,2013-10-03 18:17:00,
2013-10-03 11:22:00,48.4,39.0,30.25,North,0,3.0,8.0,70,0.00,,,0.02,meteohub,2013-10-03 18:22:00,
2013-10-03 11:27:00,49.5,40.1,30.26,North,0,5.0,8.0,70,0.00,,,0.02,meteohub,2013-10-03 18:27:00,
2013-10-03 11:32:00,49.6,38.7,30.26,NE,45,3.0,5.0,66,0.00,,,0.02,meteohub,2013-10-03 18:32:00,
2013-10-03 11:37:00,49.1,37.0,30.26,NE,45,4.0,7.0,63,0.00,,,0.02,meteohub,2013-10-03 18:37:00,
2013-10-03 11:42:00,49.1,37.4,30.26,West,270,4.0,7.0,64,0.00,,,0.02,meteohub,2013-10-03 18:42:00,
2013-10-03 11:48:00,49.8,37.4,30.26,West,270,5.0,7.0,62,0.00,,,0.02,meteohub,2013-10-03 18:48:00,
2013-10-03 11:54:00,49.6,36.3,30.26,NW,315,3.0,6.0,60,0.00,,,0.02,meteohub,2013-10-03 18:54:00,
2013-10-03 12:00:00,48.2,34.2,30.26,NW,315,4.0,10.0,58,0.00,,,0.02,meteohub,2013-10-03 19:00:00,
2013-10-03 12:06:00,48.4,36.0,30.27,North,0,3.0,10.0,62,0.00,,,0.02,meteohub,2013-10-03 19:06:00,
2013-10-03 12:12:00,49.1,36.7,30.27,NW,315,8.0,9.0,62,0.00,,,0.02,meteohub,2013-10-03 19:12:00,
2013-10-03 12:17:00,48.0,34.9,30.27,NW,315,4.0,8.0,60,0.00,,,0.02,meteohub,2013-10-03 19:17:00,
2013-10-03 12:22:00,47.7,34.9,30.27,NE,45,4.0,8.0,61,0.00,,,0.02,meteohub,2013-10-03 19:22:00,
2013-10-03 12:27:00,48.7,36.3,30.27,NW,315,3.0,8.0,62,0.00,,,0.02,meteohub,2013-10-03 19:27:00,
2013-10-03 12:32:00,49.1,36.7,30.27,NE,45,3.0,8.0,62,0.00,,,0.02,meteohub,2013-10-03 19:32:00,
2013-10-03 12:37:00,49.1,36.7,30.27,NW,315,4.0,8.0,62,0.00,,,0.02,meteohub,2013-10-03 19:37:00,
2013-10-03 12:42:00,49.1,36.7,30.27,NW,315,2.0,7.0,62,0.00,,,0.02,meteohub,2013-10-03 19:42:00,
2013-10-03 12:47:00,49.6,37.6,30.27,North,0,4.0,7.0,63,0.00,,,0.02,meteohub,2013-10-03 19:47:00,
2013-10-03 12:52:00,50.2,37.2,30.26,NW,315,2.0,4.0,61,0.00,,,0.02,meteohub,2013-10-03 19:52:00,
2013-10-03 12:57:00,50.5,37.2,30.27,NW,315,3.0,5.0,60,0.00,,,0.02,meteohub,2013-10-03 19:57:00,
2013-10-03 13:02:00,50.0,35.8,30.26,NE,45,5.0,5.0,58,0.00,,,0.02,meteohub,2013-10-03 20:02:00,
2013-10-03 13:07:00,49.5,36.5,30.26,East,90,4.0,5.0,61,0.00,,,0.02,meteohub,2013-10-03 20:07:00,
2013-10-03 13:12:00,49.3,36.9,30.27,North,0,2.0,6.0,62,0.00,,,0.02,meteohub,2013-10-03 20:12:00,
2013-10-03 13:17:00,49.5,37.0,30.26,ENE,68,6.0,6.0,62,0.00,,,0.02,meteohub,2013-10-03 20:17:00,
2013-10-03 13:22:00,50.2,37.6,30.26,WSW,248,3.0,6.0,62,0.00,,,0.02,meteohub,2013-10-03 20:22:00,
2013-10-03 13:27:00,50.2,36.9,30.26,NE,45,4.0,6.0,60,0.00,,,0.02,meteohub,2013-10-03 20:27:00,
2013-10-03 13:32:00,50.0,37.0,30.26,NNE,23,4.0,8.0,61,0.00,,,0.02,meteohub,2013-10-03 20:32:00,
2013-10-03 13:37:00,50.0,36.7,30.26,SE,135,4.0,8.0,60,0.00,,,0.02,meteohub,2013-10-03 20:37:00,
2013-10-03 13:42:00,50.4,37.0,30.26,West,270,5.0,8.0,60,0.00,,,0.02,meteohub,2013-10-03 20:42:00,
2013-10-03 13:47:00,50.7,37.4,30.26,NNW,338,6.0,6.0,60,0.00,,,0.02,meteohub,2013-10-03 20:47:00,
2013-10-03 13:53:00,50.5,37.2,30.26,North,0,5.0,6.0,60,0.00,,,0.02,meteohub,2013-10-03 20:53:00,
2013-10-03 13:59:00,50.5,37.2,30.26,East,90,2.0,6.0,60,0.00,,,0.02,meteohub,2013-10-03 20:59:00,
2013-10-03 14:05:00,50.2,36.3,30.26,North,0,3.0,7.0,59,0.00,,,0.02,meteohub,2013-10-03 21:05:00,
2013-10-03 14:11:00,50.7,37.4,30.26,NW,315,7.0,9.0,60,0.00,,,0.02,meteohub,2013-10-03 21:11:00,
2013-10-03 14:17:00,50.7,36.0,30.27,North,0,2.0,9.0,57,0.00,,,0.02,meteohub,2013-10-03 21:17:00,
2013-10-03 14:22:00,50.7,36.5,30.26,NW,315,4.0,7.0,58,0.00,,,0.02,meteohub,2013-10-03 21:22:00,
2013-10-03 14:27:00,51.1,36.9,30.26,West,270,2.0,7.0,58,0.00,,,0.02,meteohub,2013-10-03 21:27:00,
2013-10-03 14:32:00,51.3,37.0,30.26,North,0,4.0,5.0,58,0.00,,,0.02,meteohub,2013-10-03 21:32:00,
2013-10-03 14:37:00,51.4,37.2,30.27,North,0,6.0,6.0,58,0.00,,,0.02,meteohub,2013-10-03 21:37:00,
2013-10-03 14:42:00,50.7,36.5,30.27,NE,45,7.0,8.0,58,0.00,,,0.02,meteohub,2013-10-03 21:42:00,
2013-10-03 14:47:00,50.4,35.8,30.26,NE,45,4.0,8.0,57,0.00,,,0.02,meteohub,2013-10-03 21:47:00,
2013-10-03 14:52:00,50.0,35.4,30.26,South,180,2.0,8.0,57,0.00,,,0.02,meteohub,2013-10-03 21:52:00,
2013-10-03 14:57:00,50.2,36.3,30.27,NE,45,3.0,7.0,59,0.00,,,0.02,meteohub,2013-10-03 21:57:00,
2013-10-03 15:02:00,50.4,36.5,30.26,NE,45,5.0,5.0,59,0.00,,,0.02,meteohub,2013-10-03 22:02:00,
2013-10-03 15:07:00,50.4,36.1,30.27,SW,225,2.0,5.0,58,0.00,,,0.02,meteohub,2013-10-03 22:07:00,
2013-10-03 15:12:00,50.7,36.0,30.27,NW,315,4.0,5.0,57,0.00,,,0.02,meteohub,2013-10-03 22:12:00,
2013-10-03 15:17:00,51.1,36.0,30.27,NE,45,7.0,7.0,56,0.00,,,0.02,meteohub,2013-10-03 22:17:00,
2013-10-03 15:22:00,51.1,35.4,30.27,East,90,1.0,7.0,55,0.00,,,0.02,meteohub,2013-10-03 22:22:00,
2013-10-03 15:27:00,51.4,35.8,30.27,West,270,2.0,7.0,55,0.00,,,0.02,meteohub,2013-10-03 22:27:00,
2013-10-03 15:32:00,52.0,35.4,30.27,North,0,4.0,7.0,53,0.00,,,0.02,meteohub,2013-10-03 22:32:00,
2013-10-03 15:37:00,52.0,34.9,30.27,East,90,4.0,8.0,52,0.00,,,0.02,meteohub,2013-10-03 22:37:00,
2013-10-03 15:42:00,51.8,34.7,30.27,NW,315,4.0,9.0,52,0.00,,,0.02,meteohub,2013-10-03 22:42:00,
2013-10-03 15:47:00,52.0,35.4,30.27,NE,45,6.0,9.0,53,0.00,,,0.02,meteohub,2013-10-03 22:47:00,
2013-10-03 15:52:00,52.0,35.4,30.27,North,0,4.0,9.0,53,0.00,,,0.02,meteohub,2013-10-03 22:52:00,
2013-10-03 15:57:00,52.5,36.0,30.27,North,0,8.0,8.0,53,0.00,,,0.02,meteohub,2013-10-03 22:57:00,
2013-10-03 16:02:00,52.5,35.4,30.27,NE,45,4.0,12.0,52,0.00,,,0.02,meteohub,2013-10-03 23:02:00,
2013-10-03 16:07:00,52.2,35.6,30.27,NE,45,6.0,12.0,53,0.00,,,0.02,meteohub,2013-10-03 23:07:00,
2013-10-03 16:12:00,52.0,34.9,30.27,North,0,7.0,12.0,52,0.00,,,0.02,meteohub,2013-10-03 23:12:00,
2013-10-03 16:17:00,52.2,35.1,30.27,NNE,23,6.0,9.0,52,0.00,,,0.02,meteohub,2013-10-03 23:17:00,
2013-10-03 16:22:00,52.7,35.6,30.28,North,0,6.0,9.0,52,0.00,,,0.02,meteohub,2013-10-03 23:22:00,
2013-10-03 16:27:00,53.1,36.0,30.28,North,0,8.0,9.0,52,0.00,,,0.02,meteohub,2013-10-03 23:27:00,
2013-10-03 16:32:00,53.4,35.8,30.28,NE,45,2.0,9.0,51,0.00,,,0.02,meteohub,2013-10-03 23:32:00,
2013-10-03 16:37:00,54.0,35.8,30.28,East,90,2.0,8.0,50,0.00,,,0.02,meteohub,2013-10-03 23:37:00,
2013-10-03 16:42:00,54.1,35.4,30.27,NE,45,4.0,8.0,49,0.00,,,0.02,meteohub,2013-10-03 23:42:00,
2013-10-03 16:47:00,54.1,34.9,30.28,North,0,4.0,8.0,48,0.00,,,0.02,meteohub,2013-10-03 23:47:00,
2013-10-03 16:52:00,53.8,34.5,30.28,East,90,4.0,8.0,48,0.00,,,0.02,meteohub,2013-10-03 23:52:00,
2013-10-03 16:57:00,54.0,34.7,30.28,NW,315,8.0,8.0,48,0.00,,,0.02,meteohub,2013-10-03 23:57:00,
2013-10-03 17:02:00,54.0,34.7,30.28,NW,315,5.0,8.0,48,0.00,,,0.02,meteohub,2013-10-04 00:02:00,
2013-10-03 17:07:00,53.8,34.5,30.28,NW,315,4.0,8.0,48,0.00,,,0.02,meteohub,2013-10-04 00:07:00,
2013-10-03 17:12:00,53.4,33.6,30.27,NW,315,4.0,8.0,47,0.00,,,0.02,meteohub,2013-10-04 00:12:00,
2013-10-03 17:17:00,53.4,34.7,30.27,NW,315,3.0,8.0,49,0.00,,,0.02,meteohub,2013-10-04 00:17:00,
2013-10-03 17:22:00,52.7,34.2,30.28,North,0,4.0,8.0,49,0.00,,,0.02,meteohub,2013-10-04 00:22:00,
2013-10-03 17:27:00,52.2,33.6,30.27,NW,315,2.0,8.0,49,0.00,,,0.02,meteohub,2013-10-04 00:27:00,
2013-10-03 17:32:00,51.8,33.8,30.28,NE,45,4.0,8.0,50,0.00,,,0.02,meteohub,2013-10-04 00:32:00,
2013-10-03 17:37:00,51.4,34.3,30.28,NW,315,2.0,6.0,52,0.00,,,0.02,meteohub,2013-10-04 00:37:00,
2013-10-03 17:42:00,51.1,34.0,30.28,SW,225,2.0,6.0,52,0.00,,,0.02,meteohub,2013-10-04 00:42:00,
2013-10-03 17:47:00,50.7,34.2,30.28,NW,315,1.0,6.0,53,0.00,,,0.02,meteohub,2013-10-04 00:47:00,
2013-10-03 17:52:00,50.5,34.0,30.28,North,0,3.0,6.0,53,0.00,,,0.02,meteohub,2013-10-04 00:52:00,
2013-10-03 17:57:00,50.4,34.3,30.28,WNW,293,4.0,4.0,54,0.00,,,0.02,meteohub,2013-10-04 00:57:00,
2013-10-03 18:02:00,50.4,34.3,30.28,NNW,338,2.0,4.0,54,0.00,,,0.02,meteohub,2013-10-04 01:02:00,
2013-10-03 18:07:00,50.0,34.5,30.28,NW,315,2.0,4.0,55,0.00,,,0.02,meteohub,2013-10-04 01:07:00,
2013-10-03 18:12:00,50.0,34.5,30.28,WNW,293,2.0,6.0,55,0.00,,,0.02,meteohub,2013-10-04 01:12:00,
2013-10-03 18:17:00,49.8,34.7,30.28,North,0,1.0,6.0,56,0.00,,,0.02,meteohub,2013-10-04 01:17:00,
2013-10-03 18:22:00,49.5,34.3,30.29,North,0,1.0,4.0,56,0.00,,,0.02,meteohub,2013-10-04 01:22:00,
2013-10-03 18:27:00,49.1,34.5,30.28,North,0,2.0,4.0,57,0.00,,,0.02,meteohub,2013-10-04 01:27:00,
2013-10-03 18:32:00,48.9,34.3,30.29,North,0,2.0,4.0,57,0.00,,,0.02,meteohub,2013-10-04 01:32:00,
2013-10-03 18:37:00,48.7,34.2,30.29,NW,315,2.0,2.0,57,0.00,,,0.02,meteohub,2013-10-04 01:37:00,
2013-10-03 18:42:00,48.4,33.8,30.29,NW,315,1.0,2.0,57,0.00,,,0.02,meteohub,2013-10-04 01:42:00,
2013-10-03 18:47:00,48.2,34.2,30.29,NW,315,1.0,2.0,58,0.00,,,0.02,meteohub,2013-10-04 01:47:00,
2013-10-03 18:52:00,47.8,34.7,30.29,NW,315,1.0,2.0,60,0.00,,,0.02,meteohub,2013-10-04 01:52:00,
2013-10-03 18:57:00,47.5,34.7,30.29,SE,135,1.0,2.0,61,0.00,,,0.02,meteohub,2013-10-04 01:57:00,
2013-10-03 19:02:00,46.8,34.5,30.30,SE,135,0.0,2.0,62,0.00,,,0.02,meteohub,2013-10-04 02:02:00,
2013-10-03 19:07:00,46.2,33.4,30.30,SE,135,0.0,1.0,61,0.00,,,0.02,meteohub,2013-10-04 02:07:00,
2013-10-03 19:12:00,45.7,33.4,30.30,SE,135,0.0,1.0,62,0.00,,,0.02,meteohub,2013-10-04 02:12:00,
2013-10-03 19:17:00,45.1,32.9,30.29,SE,135,0.0,0.0,62,0.00,,,0.02,meteohub,2013-10-04 02:17:00,
2013-10-03 19:22:00,44.8,33.3,30.30,SW,225,1.0,0.0,64,0.00,,,0.02,meteohub,2013-10-04 02:22:00,
2013-10-03 19:27:00,44.6,33.6,30.30,West,270,1.0,1.0,65,0.00,,,0.02,meteohub,2013-10-04 02:27:00,
2013-10-03 19:32:00,44.6,34.0,30.30,West,270,0.0,2.0,66,0.00,,,0.02,meteohub,2013-10-04 02:32:00,
2013-10-03 19:37:00,44.4,34.5,30.30,West,270,0.0,2.0,68,0.00,,,0.02,meteohub,2013-10-04 02:37:00,
2013-10-03 19:42:00,44.1,34.5,30.30,West,270,0.0,1.0,69,0.00,,,0.02,meteohub,2013-10-04 02:42:00,
2013-10-03 19:47:00,43.5,34.0,30.30,West,270,0.0,0.0,69,0.00,,,0.02,meteohub,2013-10-04 02:47:00,
2013-10-03 19:52:00,43.2,33.6,30.30,West,270,1.0,0.0,69,0.00,,,0.02,meteohub,2013-10-04 02:52:00,
2013-10-03 19:57:00,42.8,33.6,30.30,West,270,1.0,1.0,70,0.00,,,0.02,meteohub,2013-10-04 02:57:00,
2013-10-03 20:02:00,42.4,34.0,30.31,West,270,0.0,1.0,72,0.00,,,0.02,meteohub,2013-10-04 03:02:00,
2013-10-03 20:07:00,42.3,33.8,30.30,West,270,0.0,1.0,72,0.00,,,0.02,meteohub,2013-10-04 03:07:00,
2013-10-03 20:12:00,42.1,34.0,30.30,West,270,2.0,2.0,73,0.00,,,0.02,meteohub,2013-10-04 03:12:00,
2013-10-03 20:17:00,41.9,33.8,30.31,West,270,0.0,2.0,73,0.00,,,0.02,meteohub,2013-10-04 03:17:00,
2013-10-03 20:22:00,41.5,33.8,30.30,West,270,0.0,2.0,74,0.00,,,0.02,meteohub,2013-10-04 03:22:00,
2013-10-03 20:27:00,41.4,33.6,30.31,West,270,0.0,2.0,74,0.00,,,0.02,meteohub,2013-10-04 03:27:00,
2013-10-03 20:32:00,41.0,33.6,30.31,West,270,0.0,0.0,75,0.00,,,0.02,meteohub,2013-10-04 03:32:00,
2013-10-03 20:37:00,40.6,34.0,30.30,West,270,0.0,0.0,77,0.00,,,0.02,meteohub,2013-10-04 03:37:00,
2013-10-03 20:42:00,40.5,34.2,30.31,West,270,0.0,1.0,78,0.00,,,0.02,meteohub,2013-10-04 03:42:00,
2013-10-03 20:47:00,40.3,34.0,30.31,West,270,0.0,1.0,78,0.00,,,0.02,meteohub,2013-10-04 03:47:00,
2013-10-03 20:52:00,40.1,34.2,30.31,West,270,0.0,2.0,79,0.00,,,0.02,meteohub,2013-10-04 03:52:00,
2013-10-03 20:57:00,39.7,33.8,30.31,West,270,1.0,2.0,79,0.00,,,0.02,meteohub,2013-10-04 03:57:00,
2013-10-03 21:31:00,38.5,33.8,30.32,South,180,0.0,2.0,83,0.00,,,0.02,meteohub,2013-10-04 04:31:00,
2013-10-03 21:35:00,38.5,33.8,30.32,South,180,1.0,2.0,83,0.00,,,0.02,meteohub,2013-10-04 04:35:00,
2013-10-03 21:37:00,38.3,33.6,30.32,South,180,1.0,2.0,83,0.00,,,0.02,meteohub,2013-10-04 04:37:00,
2013-10-03 21:40:00,38.1,33.8,30.32,South,180,0.0,2.0,84,0.00,,,0.02,meteohub,2013-10-04 04:40:00,
2013-10-03 21:44:00,37.9,33.6,30.32,South,180,0.0,2.0,84,0.00,,,0.02,meteohub,2013-10-04 04:44:00,
2013-10-03 21:46:00,37.9,33.6,30.32,South,180,1.0,1.0,84,0.00,,,0.02,meteohub,2013-10-04 04:46:00,
2013-10-03 21:47:00,37.9,33.6,30.32,South,180,1.0,1.0,84,0.00,,,0.02,meteohub,2013-10-04 04:47:00,
2013-10-03 21:50:00,37.8,33.4,30.31,South,180,1.0,1.0,84,0.00,,,0.02,meteohub,2013-10-04 04:50:00,
2013-10-03 21:57:00,37.6,33.3,30.32,SW,225,2.0,2.0,84,0.00,,,0.02,meteohub,2013-10-04 04:57:00,
2013-10-03 21:59:00,37.6,33.3,30.32,SW,225,1.0,2.0,84,0.00,,,0.02,meteohub,2013-10-04 04:59:00,
2013-10-03 22:05:00,37.2,32.0,30.32,SW,225,0.0,2.0,81,0.00,,,0.02,meteohub,2013-10-04 05:05:00,
2013-10-03 22:11:00,37.0,31.8,30.32,SW,225,1.0,2.0,81,0.00,,,0.02,meteohub,2013-10-04 05:11:00,
2013-10-03 22:12:00,37.0,31.8,30.32,SW,225,1.0,2.0,81,0.00,,,0.02,meteohub,2013-10-04 05:12:00,
2013-10-03 22:22:00,36.5,31.3,30.33,SW,225,1.0,2.0,81,0.00,,,0.02,meteohub,2013-10-04 05:22:00,
2013-10-03 22:29:00,36.3,31.1,30.33,SW,225,2.0,2.0,81,0.00,,,0.02,meteohub,2013-10-04 05:29:00,
2013-10-03 22:35:00,36.1,31.1,30.33,SW,225,2.0,2.0,82,0.00,,,0.02,meteohub,2013-10-04 05:35:00,
2013-10-03 22:41:00,36.0,30.9,30.33,SE,135,1.0,2.0,82,0.00,,,0.02,meteohub,2013-10-04 05:41:00,
2013-10-03 22:47:00,35.8,30.7,30.33,SW,225,2.0,2.0,82,0.00,,,0.02,meteohub,2013-10-04 05:47:00,
2013-10-03 22:52:00,35.6,30.7,30.34,SW,225,1.0,2.0,82,0.00,,,0.02,meteohub,2013-10-04 05:52:00,
2013-10-03 22:57:00,35.4,31.1,30.33,SW,225,2.0,2.0,84,0.00,,,0.02,meteohub,2013-10-04 05:57:00,
2013-10-03 23:02:00,35.2,30.9,30.33,SW,225,1.0,2.0,84,0.00,,,0.02,meteohub,2013-10-04 06:02:00,
2013-10-03 23:07:00,35.2,30.9,30.33,SW,225,0.0,2.0,84,0.00,,,0.02,meteohub,2013-10-04 06:07:00,
2013-10-03 23:12:00,35.1,30.7,30.34,SW,225,1.0,2.0,84,0.00,,,0.02,meteohub,2013-10-04 06:12:00,
2013-10-03 23:17:00,34.7,30.4,30.34,SW,225,0.0,1.0,84,0.00,,,0.02,meteohub,2013-10-04 06:17:00,
2013-10-03 23:22:00,34.5,30.2,30.34,SW,225,0.0,1.0,84,0.00,,,0.02,meteohub,2013-10-04 06:22:00,
2013-10-03 23:27:00,34.3,30.0,30.34,SW,225,1.0,1.0,84,0.00,,,0.02,meteohub,2013-10-04 06:27:00,
2013-10-03 23:32:00,34.2,29.8,30.34,SW,225,0.0,1.0,84,0.00,,,0.02,meteohub,2013-10-04 06:32:00,
2013-10-03 23:37:00,34.0,29.7,30.35,SW,225,0.0,1.0,84,0.00,,,0.02,meteohub,2013-10-04 06:37:00,
2013-10-03 23:42:00,33.8,29.5,30.35,SW,225,0.0,1.0,84,0.00,,,0.02,meteohub,2013-10-04 06:42:00,
2013-10-03 23:47:00,33.6,29.7,30.34,SW,225,0.0,1.0,85,0.00,,,0.02,meteohub,2013-10-04 06:47:00,
2013-10-03 23:52:00,33.6,29.7,30.35,SW,225,0.0,1.0,85,0.00,,,0.02,meteohub,2013-10-04 06:52:00,
2013-10-03 23:57:00,33.4,29.7,30.35,SW,225,0.0,1.0,86,0.00,,,0.02,meteohub,2013-10-04 06:57:00,